メインページ
METAR-TAF:

METAR-TAF

空港 :

バマコ・セヌー国際空港

バマコ, マリ共和国

緯度: 12-32N, 経度: 007-57W, 海抜: 380m

現時点の気象観測

当レポートは42分前の05:00(UTC)に作成
変向風 2kt
気温 27°C
湿度 74%
気圧 1011 hPa
視程10km以上
1,500メートル以下は雲なし、積乱雲なし

METAR: GABS 210500Z VRB02KT CAVOK 27/22 Q1011 NOSIG

時間: 05:42 (05:42 UTC)

予報

当レポートは6時間42分前の23:00(UTC)に作成
予報は21日の 00時(UTC)から 22日の 06時(UTC)まで有効
南/南東の風 10kt
視程10km以上
1,500メートル以下は雲なし、積乱雲なし
21日の 06時(UTC)から 26日の 10時(UTC)まで一時的に
西の風 10kt
21日の 11時(UTC)から 21日の 12時(UTC)まで徐々に
北東の風 8kt

TAF: GABS 202300Z 2100/2206 16010KT CAVOK TEMPO 2106/2610 26010KT BECMG 2111/2112 04008KT

4,000以上の空港の気象観測と天気予報(METAR報とTAF報)

利用可能な観測所は地図上に黄色い丸と赤い丸で示す。

丸の上にカーソルを重ねると観測所名を参照できる。

次にクリックすると気象観測と天気予報を参照できる。

マップの切り替え:黒色「×」印の緑ボタンをクリックして拡大、「-」印の緑ボタンをクリックして縮小、緑色の三角印をクリックして隣りの地図に切り替え


METAR-TAF: